sensor_id;sensor_type;location;lat;lon;timestamp;P1;durP1;ratioP1;P2;durP2;ratioP2
21894;SDS011;11112;51.270;7.224;2023-02-26T00:01:38;8.75;;;2.55;;
21894;SDS011;11112;51.270;7.224;2023-02-26T00:04:06;8.27;;;2.25;;
21894;SDS011;11112;51.270;7.224;2023-02-26T00:06:36;8.18;;;2.17;;
21894;SDS011;11112;51.270;7.224;2023-02-26T00:09:16;7.28;;;2.17;;
21894;SDS011;11112;51.270;7.224;2023-02-26T00:11:46;9.52;;;2.40;;
21894;SDS011;11112;51.270;7.224;2023-02-26T00:14:15;9.77;;;2.00;;
21894;SDS011;11112;51.270;7.224;2023-02-26T00:16:43;6.03;;;2.17;;
21894;SDS011;11112;51.270;7.224;2023-02-26T00:19:15;9.35;;;2.03;;
21894;SDS011;11112;51.270;7.224;2023-02-26T00:21:42;6.70;;;2.08;;
21894;SDS011;11112;51.270;7.224;2023-02-26T00:24:10;8.60;;;2.08;;
21894;SDS011;11112;51.270;7.224;2023-02-26T00:26:38;7.93;;;2.03;;
21894;SDS011;11112;51.270;7.224;2023-02-26T00:29:10;9.05;;;1.88;;
21894;SDS011;11112;51.270;7.224;2023-02-26T00:31:37;7.03;;;1.90;;
21894;SDS011;11112;51.270;7.224;2023-02-26T00:34:09;6.78;;;2.10;;
21894;SDS011;11112;51.270;7.224;2023-02-26T00:36:39;6.63;;;1.90;;
21894;SDS011;11112;51.270;7.224;2023-02-26T00:41:57;5.07;;;1.70;;
21894;SDS011;11112;51.270;7.224;2023-02-26T00:44:27;7.60;;;1.70;;
21894;SDS011;11112;51.270;7.224;2023-02-26T00:46:57;6.95;;;1.88;;
21894;SDS011;11112;51.270;7.224;2023-02-26T00:49:40;6.93;;;1.95;;
21894;SDS011;11112;51.270;7.224;2023-02-26T00:52:19;6.78;;;1.80;;
21894;SDS011;11112;51.270;7.224;2023-02-26T00:54:57;5.18;;;1.45;;
21894;SDS011;11112;51.270;7.224;2023-02-26T00:57:24;7.20;;;1.73;;
21894;SDS011;11112;51.270;7.224;2023-02-26T00:59:53;5.85;;;1.60;;
21894;SDS011;11112;51.270;7.224;2023-02-26T01:02:20;6.35;;;1.77;;
21894;SDS011;11112;51.270;7.224;2023-02-26T01:04:50;4.57;;;1.52;;
21894;SDS011;11112;51.270;7.224;2023-02-26T01:07:18;5.63;;;1.65;;
21894;SDS011;11112;51.270;7.224;2023-02-26T01:09:49;7.93;;;1.40;;
21894;SDS011;11112;51.270;7.224;2023-02-26T01:12:17;8.27;;;1.48;;
21894;SDS011;11112;51.270;7.224;2023-02-26T01:14:46;7.13;;;1.52;;
21894;SDS011;11112;51.270;7.224;2023-02-26T01:17:18;5.97;;;1.55;;
21894;SDS011;11112;51.270;7.224;2023-02-26T01:19:51;5.90;;;1.50;;
21894;SDS011;11112;51.270;7.224;2023-02-26T01:22:24;9.15;;;1.85;;
21894;SDS011;11112;51.270;7.224;2023-02-26T01:25:00;6.05;;;1.55;;
21894;SDS011;11112;51.270;7.224;2023-02-26T01:27:31;6.53;;;1.90;;
21894;SDS011;11112;51.270;7.224;2023-02-26T01:29:59;5.00;;;1.58;;
21894;SDS011;11112;51.270;7.224;2023-02-26T01:32:29;8.40;;;1.90;;
21894;SDS011;11112;51.270;7.224;2023-02-26T01:35:11;6.45;;;1.85;;
21894;SDS011;11112;51.270;7.224;2023-02-26T01:37:50;6.13;;;1.52;;
21894;SDS011;11112;51.270;7.224;2023-02-26T01:40:33;7.25;;;1.95;;
21894;SDS011;11112;51.270;7.224;2023-02-26T01:46:04;6.13;;;1.55;;
21894;SDS011;11112;51.270;7.224;2023-02-26T01:48:47;5.05;;;1.70;;
21894;SDS011;11112;51.270;7.224;2023-02-26T01:54:11;7.22;;;1.75;;
21894;SDS011;11112;51.270;7.224;2023-02-26T01:56:39;5.55;;;1.67;;
21894;SDS011;11112;51.270;7.224;2023-02-26T01:59:08;10.10;;;2.03;;
21894;SDS011;11112;51.270;7.224;2023-02-26T02:01:40;8.75;;;1.83;;
21894;SDS011;11112;51.270;7.224;2023-02-26T02:04:10;3.70;;;1.45;;
21894;SDS011;11112;51.270;7.224;2023-02-26T02:06:40;5.70;;;1.83;;
21894;SDS011;11112;51.270;7.224;2023-02-26T02:09:09;7.93;;;2.03;;
21894;SDS011;11112;51.270;7.224;2023-02-26T02:11:39;7.32;;;1.73;;
21894;SDS011;11112;51.270;7.224;2023-02-26T02:14:40;6.60;;;1.52;;
21894;SDS011;11112;51.270;7.224;2023-02-26T02:17:20;4.30;;;1.40;;
21894;SDS011;11112;51.270;7.224;2023-02-26T02:20:08;4.72;;;1.27;;
21894;SDS011;11112;51.270;7.224;2023-02-26T02:23:19;8.30;;;1.70;;
21894;SDS011;11112;51.270;7.224;2023-02-26T02:26:09;6.65;;;1.50;;
21894;SDS011;11112;51.270;7.224;2023-02-26T02:32:37;6.30;;;1.38;;
21894;SDS011;11112;51.270;7.224;2023-02-26T02:35:11;5.32;;;1.20;;
21894;SDS011;11112;51.270;7.224;2023-02-26T02:37:45;5.00;;;1.30;;
21894;SDS011;11112;51.270;7.224;2023-02-26T02:40:20;4.85;;;1.33;;
21894;SDS011;11112;51.270;7.224;2023-02-26T02:42:52;6.88;;;1.38;;
21894;SDS011;11112;51.270;7.224;2023-02-26T02:48:00;7.57;;;1.60;;
21894;SDS011;11112;51.270;7.224;2023-02-26T02:50:33;6.82;;;1.50;;
21894;SDS011;11112;51.270;7.224;2023-02-26T02:55:37;7.82;;;1.60;;
21894;SDS011;11112;51.270;7.224;2023-02-26T02:58:12;6.65;;;1.50;;
21894;SDS011;11112;51.270;7.224;2023-02-26T03:00:45;5.28;;;1.48;;
21894;SDS011;11112;51.270;7.224;2023-02-26T03:03:18;5.15;;;1.48;;
21894;SDS011;11112;51.270;7.224;2023-02-26T03:05:50;8.75;;;1.60;;
21894;SDS011;11112;51.270;7.224;2023-02-26T03:08:18;4.82;;;1.27;;
21894;SDS011;11112;51.270;7.224;2023-02-26T03:10:49;4.82;;;1.30;;
21894;SDS011;11112;51.270;7.224;2023-02-26T03:13:18;4.25;;;1.40;;
21894;SDS011;11112;51.270;7.224;2023-02-26T03:15:59;4.35;;;1.40;;
21894;SDS011;11112;51.270;7.224;2023-02-26T03:18:46;6.75;;;1.60;;
21894;SDS011;11112;51.270;7.224;2023-02-26T03:21:26;5.78;;;1.40;;
21894;SDS011;11112;51.270;7.224;2023-02-26T03:24:03;5.35;;;1.50;;
21894;SDS011;11112;51.270;7.224;2023-02-26T03:26:41;7.78;;;1.60;;
21894;SDS011;11112;51.270;7.224;2023-02-26T03:29:14;6.15;;;1.65;;
21894;SDS011;11112;51.270;7.224;2023-02-26T03:31:49;7.03;;;1.33;;
21894;SDS011;11112;51.270;7.224;2023-02-26T03:34:25;6.82;;;1.35;;
21894;SDS011;11112;51.270;7.224;2023-02-26T03:36:59;7.90;;;1.42;;
21894;SDS011;11112;51.270;7.224;2023-02-26T03:39:32;7.85;;;1.48;;
21894;SDS011;11112;51.270;7.224;2023-02-26T03:42:07;6.90;;;1.52;;
21894;SDS011;11112;51.270;7.224;2023-02-26T03:44:41;4.72;;;1.52;;
21894;SDS011;11112;51.270;7.224;2023-02-26T03:47:14;7.40;;;1.55;;
21894;SDS011;11112;51.270;7.224;2023-02-26T03:49:44;4.70;;;1.48;;
21894;SDS011;11112;51.270;7.224;2023-02-26T03:52:19;5.53;;;1.42;;
21894;SDS011;11112;51.270;7.224;2023-02-26T03:54:50;5.28;;;1.48;;
21894;SDS011;11112;51.270;7.224;2023-02-26T03:57:23;5.63;;;1.58;;
21894;SDS011;11112;51.270;7.224;2023-02-26T03:59:51;5.43;;;1.50;;
21894;SDS011;11112;51.270;7.224;2023-02-26T04:02:19;8.23;;;1.52;;
21894;SDS011;11112;51.270;7.224;2023-02-26T04:04:54;5.53;;;1.60;;
21894;SDS011;11112;51.270;7.224;2023-02-26T04:07:25;5.57;;;1.55;;
21894;SDS011;11112;51.270;7.224;2023-02-26T04:09:54;5.25;;;1.70;;
21894;SDS011;11112;51.270;7.224;2023-02-26T04:12:23;5.78;;;1.67;;
21894;SDS011;11112;51.270;7.224;2023-02-26T04:14:53;5.93;;;1.30;;
21894;SDS011;11112;51.270;7.224;2023-02-26T04:17:20;6.10;;;1.38;;
21894;SDS011;11112;51.270;7.224;2023-02-26T04:19:48;6.13;;;1.70;;
21894;SDS011;11112;51.270;7.224;2023-02-26T04:22:17;4.63;;;1.38;;
21894;SDS011;11112;51.270;7.224;2023-02-26T04:24:44;6.32;;;1.33;;
21894;SDS011;11112;51.270;7.224;2023-02-26T04:27:11;6.65;;;1.40;;
21894;SDS011;11112;51.270;7.224;2023-02-26T04:29:39;5.88;;;1.60;;
21894;SDS011;11112;51.270;7.224;2023-02-26T04:32:06;5.00;;;1.75;;
21894;SDS011;11112;51.270;7.224;2023-02-26T04:34:33;8.07;;;1.80;;
21894;SDS011;11112;51.270;7.224;2023-02-26T04:37:01;4.90;;;1.60;;
21894;SDS011;11112;51.270;7.224;2023-02-26T04:39:30;5.95;;;1.52;;
21894;SDS011;11112;51.270;7.224;2023-02-26T04:41:57;7.30;;;1.58;;
21894;SDS011;11112;51.270;7.224;2023-02-26T04:44:25;5.65;;;1.55;;
21894;SDS011;11112;51.270;7.224;2023-02-26T04:46:52;6.63;;;1.83;;
21894;SDS011;11112;51.270;7.224;2023-02-26T04:49:19;13.85;;;1.92;;
21894;SDS011;11112;51.270;7.224;2023-02-26T04:51:47;7.82;;;1.63;;
21894;SDS011;11112;51.270;7.224;2023-02-26T04:54:14;6.05;;;1.60;;
21894;SDS011;11112;51.270;7.224;2023-02-26T04:56:43;4.90;;;1.60;;
21894;SDS011;11112;51.270;7.224;2023-02-26T04:59:10;6.18;;;1.40;;
21894;SDS011;11112;51.270;7.224;2023-02-26T05:01:37;5.80;;;1.50;;
21894;SDS011;11112;51.270;7.224;2023-02-26T05:04:06;6.40;;;1.67;;
21894;SDS011;11112;51.270;7.224;2023-02-26T05:06:33;7.93;;;1.50;;
21894;SDS011;11112;51.270;7.224;2023-02-26T05:09:01;6.97;;;1.88;;
21894;SDS011;11112;51.270;7.224;2023-02-26T05:11:28;9.70;;;1.80;;
21894;SDS011;11112;51.270;7.224;2023-02-26T05:13:57;7.43;;;1.70;;
21894;SDS011;11112;51.270;7.224;2023-02-26T05:16:24;7.55;;;1.70;;
21894;SDS011;11112;51.270;7.224;2023-02-26T05:18:54;7.45;;;1.42;;
21894;SDS011;11112;51.270;7.224;2023-02-26T05:21:21;5.53;;;1.70;;
21894;SDS011;11112;51.270;7.224;2023-02-26T05:23:49;6.55;;;1.60;;
21894;SDS011;11112;51.270;7.224;2023-02-26T05:26:16;8.20;;;1.70;;
21894;SDS011;11112;51.270;7.224;2023-02-26T05:28:44;5.65;;;1.45;;
21894;SDS011;11112;51.270;7.224;2023-02-26T05:31:13;6.80;;;1.42;;
21894;SDS011;11112;51.270;7.224;2023-02-26T05:33:40;4.82;;;1.50;;
21894;SDS011;11112;51.270;7.224;2023-02-26T05:36:08;6.70;;;1.67;;
21894;SDS011;11112;51.270;7.224;2023-02-26T05:38:37;7.43;;;1.90;;
21894;SDS011;11112;51.270;7.224;2023-02-26T05:41:05;4.75;;;1.60;;
21894;SDS011;11112;51.270;7.224;2023-02-26T05:43:32;6.38;;;1.60;;
21894;SDS011;11112;51.270;7.224;2023-02-26T05:46:00;5.93;;;1.52;;
21894;SDS011;11112;51.270;7.224;2023-02-26T05:48:29;4.75;;;1.30;;
21894;SDS011;11112;51.270;7.224;2023-02-26T05:50:56;5.50;;;1.52;;
21894;SDS011;11112;51.270;7.224;2023-02-26T05:53:24;5.60;;;1.60;;
21894;SDS011;11112;51.270;7.224;2023-02-26T05:55:51;5.07;;;1.58;;
21894;SDS011;11112;51.270;7.224;2023-02-26T05:58:21;10.77;;;1.50;;
21894;SDS011;11112;51.270;7.224;2023-02-26T06:00:49;7.40;;;1.77;;
21894;SDS011;11112;51.270;7.224;2023-02-26T06:03:17;5.85;;;1.80;;
21894;SDS011;11112;51.270;7.224;2023-02-26T06:05:46;5.90;;;1.50;;
21894;SDS011;11112;51.270;7.224;2023-02-26T06:08:15;7.18;;;1.50;;
21894;SDS011;11112;51.270;7.224;2023-02-26T06:10:43;4.10;;;1.48;;
21894;SDS011;11112;51.270;7.224;2023-02-26T06:13:10;8.73;;;1.58;;
21894;SDS011;11112;51.270;7.224;2023-02-26T06:15:38;7.35;;;1.88;;
21894;SDS011;11112;51.270;7.224;2023-02-26T06:18:07;4.68;;;1.40;;
21894;SDS011;11112;51.270;7.224;2023-02-26T06:20:35;6.88;;;1.67;;
21894;SDS011;11112;51.270;7.224;2023-02-26T06:23:06;5.35;;;1.38;;
21894;SDS011;11112;51.270;7.224;2023-02-26T06:25:33;6.57;;;2.20;;
21894;SDS011;11112;51.270;7.224;2023-02-26T06:28:00;6.68;;;1.65;;
21894;SDS011;11112;51.270;7.224;2023-02-26T06:30:27;4.70;;;1.42;;
21894;SDS011;11112;51.270;7.224;2023-02-26T06:32:55;6.32;;;1.52;;
21894;SDS011;11112;51.270;7.224;2023-02-26T06:35:22;5.68;;;1.80;;
21894;SDS011;11112;51.270;7.224;2023-02-26T06:37:50;6.65;;;1.70;;
21894;SDS011;11112;51.270;7.224;2023-02-26T06:40:20;4.18;;;1.70;;
21894;SDS011;11112;51.270;7.224;2023-02-26T06:42:47;7.05;;;1.80;;
21894;SDS011;11112;51.270;7.224;2023-02-26T06:45:15;6.95;;;1.75;;
21894;SDS011;11112;51.270;7.224;2023-02-26T06:47:43;7.38;;;1.92;;
21894;SDS011;11112;51.270;7.224;2023-02-26T06:50:10;6.15;;;1.90;;
21894;SDS011;11112;51.270;7.224;2023-02-26T06:52:38;7.10;;;1.55;;
21894;SDS011;11112;51.270;7.224;2023-02-26T06:55:06;7.35;;;1.40;;
21894;SDS011;11112;51.270;7.224;2023-02-26T06:57:36;9.35;;;1.50;;
21894;SDS011;11112;51.270;7.224;2023-02-26T07:00:07;8.95;;;1.60;;
21894;SDS011;11112;51.270;7.224;2023-02-26T07:02:36;6.35;;;1.45;;
21894;SDS011;11112;51.270;7.224;2023-02-26T07:05:03;6.20;;;1.50;;
21894;SDS011;11112;51.270;7.224;2023-02-26T07:07:31;4.60;;;1.60;;
21894;SDS011;11112;51.270;7.224;2023-02-26T07:09:59;7.63;;;1.63;;
21894;SDS011;11112;51.270;7.224;2023-02-26T07:12:27;8.10;;;1.50;;
21894;SDS011;11112;51.270;7.224;2023-02-26T07:14:56;9.00;;;2.25;;
21894;SDS011;11112;51.270;7.224;2023-02-26T07:17:23;6.32;;;1.70;;
21894;SDS011;11112;51.270;7.224;2023-02-26T07:19:51;6.07;;;1.60;;
21894;SDS011;11112;51.270;7.224;2023-02-26T07:22:19;7.10;;;1.75;;
21894;SDS011;11112;51.270;7.224;2023-02-26T07:24:46;5.05;;;1.42;;
21894;SDS011;11112;51.270;7.224;2023-02-26T07:27:15;3.58;;;1.50;;
21894;SDS011;11112;51.270;7.224;2023-02-26T07:29:42;6.80;;;1.83;;
21894;SDS011;11112;51.270;7.224;2023-02-26T07:32:11;9.13;;;1.60;;
21894;SDS011;11112;51.270;7.224;2023-02-26T07:34:38;7.25;;;1.45;;
21894;SDS011;11112;51.270;7.224;2023-02-26T07:37:06;4.43;;;1.50;;
21894;SDS011;11112;51.270;7.224;2023-02-26T07:39:33;9.43;;;1.50;;
21894;SDS011;11112;51.270;7.224;2023-02-26T07:42:01;6.32;;;1.45;;
21894;SDS011;11112;51.270;7.224;2023-02-26T07:44:28;5.85;;;1.52;;
21894;SDS011;11112;51.270;7.224;2023-02-26T07:46:55;4.43;;;1.33;;
21894;SDS011;11112;51.270;7.224;2023-02-26T07:49:25;7.03;;;1.92;;
21894;SDS011;11112;51.270;7.224;2023-02-26T07:51:52;5.93;;;1.70;;
21894;SDS011;11112;51.270;7.224;2023-02-26T07:54:21;10.77;;;1.50;;
21894;SDS011;11112;51.270;7.224;2023-02-26T07:56:48;5.95;;;1.75;;
21894;SDS011;11112;51.270;7.224;2023-02-26T07:59:15;4.72;;;1.58;;
21894;SDS011;11112;51.270;7.224;2023-02-26T08:01:43;6.15;;;1.75;;
21894;SDS011;11112;51.270;7.224;2023-02-26T08:04:10;6.68;;;1.60;;
21894;SDS011;11112;51.270;7.224;2023-02-26T08:06:39;5.78;;;1.90;;
21894;SDS011;11112;51.270;7.224;2023-02-26T08:09:06;7.40;;;2.10;;
21894;SDS011;11112;51.270;7.224;2023-02-26T08:11:33;6.57;;;1.80;;
21894;SDS011;11112;51.270;7.224;2023-02-26T08:14:04;5.85;;;1.70;;
21894;SDS011;11112;51.270;7.224;2023-02-26T08:16:31;6.13;;;1.48;;
21894;SDS011;11112;51.270;7.224;2023-02-26T08:18:59;5.15;;;1.50;;
21894;SDS011;11112;51.270;7.224;2023-02-26T08:21:27;6.43;;;1.58;;
21894;SDS011;11112;51.270;7.224;2023-02-26T08:23:56;8.63;;;1.70;;
21894;SDS011;11112;51.270;7.224;2023-02-26T08:26:24;7.20;;;1.63;;
21894;SDS011;11112;51.270;7.224;2023-02-26T08:28:51;7.68;;;1.73;;
21894;SDS011;11112;51.270;7.224;2023-02-26T08:31:18;5.43;;;1.63;;
21894;SDS011;11112;51.270;7.224;2023-02-26T08:33:47;5.50;;;1.42;;
21894;SDS011;11112;51.270;7.224;2023-02-26T08:36:14;4.32;;;1.13;;
21894;SDS011;11112;51.270;7.224;2023-02-26T08:38:41;4.03;;;1.45;;
21894;SDS011;11112;51.270;7.224;2023-02-26T08:41:10;6.93;;;1.60;;
21894;SDS011;11112;51.270;7.224;2023-02-26T08:43:38;7.40;;;1.83;;
21894;SDS011;11112;51.270;7.224;2023-02-26T08:46:05;4.05;;;1.27;;
21894;SDS011;11112;51.270;7.224;2023-02-26T08:48:33;5.10;;;1.33;;
21894;SDS011;11112;51.270;7.224;2023-02-26T08:51:00;6.50;;;1.40;;
21894;SDS011;11112;51.270;7.224;2023-02-26T08:53:28;6.88;;;1.23;;
21894;SDS011;11112;51.270;7.224;2023-02-26T08:55:55;5.38;;;1.52;;
21894;SDS011;11112;51.270;7.224;2023-02-26T08:58:24;5.65;;;1.45;;
21894;SDS011;11112;51.270;7.224;2023-02-26T09:00:52;5.38;;;1.48;;
21894;SDS011;11112;51.270;7.224;2023-02-26T09:03:20;9.02;;;1.50;;
21894;SDS011;11112;51.270;7.224;2023-02-26T09:05:49;5.15;;;1.30;;
21894;SDS011;11112;51.270;7.224;2023-02-26T09:08:18;4.13;;;1.35;;
21894;SDS011;11112;51.270;7.224;2023-02-26T09:10:46;6.53;;;1.30;;
21894;SDS011;11112;51.270;7.224;2023-02-26T09:13:15;4.07;;;1.23;;
21894;SDS011;11112;51.270;7.224;2023-02-26T09:15:45;5.57;;;1.23;;
21894;SDS011;11112;51.270;7.224;2023-02-26T09:18:15;5.30;;;1.20;;
21894;SDS011;11112;51.270;7.224;2023-02-26T09:20:43;8.85;;;1.60;;
21894;SDS011;11112;51.270;7.224;2023-02-26T09:23:11;4.40;;;1.20;;
21894;SDS011;11112;51.270;7.224;2023-02-26T09:25:38;5.40;;;1.27;;
21894;SDS011;11112;51.270;7.224;2023-02-26T09:28:06;6.25;;;1.30;;
21894;SDS011;11112;51.270;7.224;2023-02-26T09:30:33;5.07;;;1.52;;
21894;SDS011;11112;51.270;7.224;2023-02-26T09:33:03;4.43;;;1.17;;
21894;SDS011;11112;51.270;7.224;2023-02-26T09:35:33;4.32;;;1.23;;
21894;SDS011;11112;51.270;7.224;2023-02-26T09:38:01;3.80;;;0.95;;
21894;SDS011;11112;51.270;7.224;2023-02-26T09:40:36;3.78;;;1.02;;
21894;SDS011;11112;51.270;7.224;2023-02-26T09:43:20;2.80;;;0.85;;
21894;SDS011;11112;51.270;7.224;2023-02-26T09:46:02;4.57;;;1.20;;
21894;SDS011;11112;51.270;7.224;2023-02-26T09:48:37;4.68;;;1.20;;
21894;SDS011;11112;51.270;7.224;2023-02-26T09:51:06;3.90;;;1.02;;
21894;SDS011;11112;51.270;7.224;2023-02-26T09:53:38;3.92;;;1.17;;
21894;SDS011;11112;51.270;7.224;2023-02-26T09:56:11;6.78;;;1.23;;
21894;SDS011;11112;51.270;7.224;2023-02-26T09:58:43;4.25;;;1.40;;
21894;SDS011;11112;51.270;7.224;2023-02-26T10:01:12;5.18;;;1.05;;
21894;SDS011;11112;51.270;7.224;2023-02-26T10:03:53;4.20;;;1.00;;
21894;SDS011;11112;51.270;7.224;2023-02-26T10:06:27;5.63;;;1.13;;
21894;SDS011;11112;51.270;7.224;2023-02-26T10:09:00;2.83;;;0.70;;
21894;SDS011;11112;51.270;7.224;2023-02-26T10:11:45;2.85;;;0.80;;
21894;SDS011;11112;51.270;7.224;2023-02-26T10:14:22;2.20;;;0.75;;
21894;SDS011;11112;51.270;7.224;2023-02-26T10:16:55;3.83;;;0.90;;
21894;SDS011;11112;51.270;7.224;2023-02-26T10:19:29;4.53;;;1.00;;
21894;SDS011;11112;51.270;7.224;2023-02-26T10:22:04;3.55;;;1.30;;
21894;SDS011;11112;51.270;7.224;2023-02-26T10:24:42;3.50;;;0.80;;
21894;SDS011;11112;51.270;7.224;2023-02-26T10:27:15;2.20;;;0.70;;
21894;SDS011;11112;51.270;7.224;2023-02-26T10:29:49;5.13;;;1.20;;
21894;SDS011;11112;51.270;7.224;2023-02-26T10:32:24;6.57;;;1.52;;
21894;SDS011;11112;51.270;7.224;2023-02-26T10:35:02;6.35;;;0.95;;
21894;SDS011;11112;51.270;7.224;2023-02-26T10:37:37;4.50;;;1.00;;
21894;SDS011;11112;51.270;7.224;2023-02-26T10:40:15;4.03;;;1.08;;
21894;SDS011;11112;51.270;7.224;2023-02-26T10:42:45;4.10;;;1.20;;
21894;SDS011;11112;51.270;7.224;2023-02-26T10:45:29;4.07;;;1.17;;
21894;SDS011;11112;51.270;7.224;2023-02-26T10:48:19;5.22;;;1.40;;
21894;SDS011;11112;51.270;7.224;2023-02-26T10:51:48;3.97;;;1.00;;
21894;SDS011;11112;51.270;7.224;2023-02-26T10:54:20;4.35;;;0.80;;
21894;SDS011;11112;51.270;7.224;2023-02-26T10:56:53;2.72;;;1.05;;
21894;SDS011;11112;51.270;7.224;2023-02-26T10:59:26;3.53;;;0.80;;
21894;SDS011;11112;51.270;7.224;2023-02-26T11:01:54;3.25;;;0.90;;
21894;SDS011;11112;51.270;7.224;2023-02-26T11:04:22;3.75;;;0.90;;
21894;SDS011;11112;51.270;7.224;2023-02-26T11:06:54;3.45;;;0.95;;
21894;SDS011;11112;51.270;7.224;2023-02-26T11:09:25;3.73;;;1.00;;
21894;SDS011;11112;51.270;7.224;2023-02-26T11:12:00;5.30;;;1.08;;
21894;SDS011;11112;51.270;7.224;2023-02-26T11:14:32;3.72;;;1.10;;
21894;SDS011;11112;51.270;7.224;2023-02-26T11:17:01;3.20;;;0.68;;
21894;SDS011;11112;51.270;7.224;2023-02-26T11:19:37;3.80;;;1.05;;
21894;SDS011;11112;51.270;7.224;2023-02-26T11:22:11;4.50;;;1.60;;
21894;SDS011;11112;51.270;7.224;2023-02-26T11:24:40;3.35;;;1.20;;
21894;SDS011;11112;51.270;7.224;2023-02-26T11:27:12;3.22;;;0.80;;
21894;SDS011;11112;51.270;7.224;2023-02-26T11:29:45;4.35;;;0.93;;
21894;SDS011;11112;51.270;7.224;2023-02-26T11:32:16;2.63;;;0.90;;
21894;SDS011;11112;51.270;7.224;2023-02-26T11:34:47;4.28;;;1.08;;
21894;SDS011;11112;51.270;7.224;2023-02-26T11:37:19;4.30;;;1.02;;
21894;SDS011;11112;51.270;7.224;2023-02-26T11:39:49;3.63;;;1.20;;
21894;SDS011;11112;51.270;7.224;2023-02-26T11:42:25;2.58;;;1.10;;
21894;SDS011;11112;51.270;7.224;2023-02-26T11:44:53;3.33;;;0.90;;
21894;SDS011;11112;51.270;7.224;2023-02-26T11:47:25;2.78;;;0.73;;
21894;SDS011;11112;51.270;7.224;2023-02-26T11:49:59;4.40;;;1.10;;
21894;SDS011;11112;51.270;7.224;2023-02-26T11:52:35;3.63;;;0.90;;
21894;SDS011;11112;51.270;7.224;2023-02-26T11:57:55;3.00;;;0.90;;
21894;SDS011;11112;51.270;7.224;2023-02-26T12:00:29;3.35;;;0.93;;
21894;SDS011;11112;51.270;7.224;2023-02-26T12:02:59;2.97;;;0.90;;
21894;SDS011;11112;51.270;7.224;2023-02-26T12:05:29;5.18;;;0.85;;
21894;SDS011;11112;51.270;7.224;2023-02-26T12:08:00;2.97;;;0.95;;
21894;SDS011;11112;51.270;7.224;2023-02-26T12:10:39;3.63;;;1.13;;
21894;SDS011;11112;51.270;7.224;2023-02-26T12:13:19;2.60;;;0.90;;
21894;SDS011;11112;51.270;7.224;2023-02-26T12:15:54;4.38;;;1.13;;
21894;SDS011;11112;51.270;7.224;2023-02-26T12:18:48;3.22;;;0.95;;
21894;SDS011;11112;51.270;7.224;2023-02-26T12:21:39;5.13;;;1.83;;
21894;SDS011;11112;51.270;7.224;2023-02-26T12:24:54;4.32;;;0.93;;
21894;SDS011;11112;51.270;7.224;2023-02-26T12:28:00;2.83;;;1.00;;
21894;SDS011;11112;51.270;7.224;2023-02-26T12:30:57;4.32;;;0.80;;
21894;SDS011;11112;51.270;7.224;2023-02-26T12:34:00;3.37;;;0.97;;
21894;SDS011;11112;51.270;7.224;2023-02-26T12:36:49;6.35;;;1.20;;
21894;SDS011;11112;51.270;7.224;2023-02-26T12:39:37;2.70;;;0.98;;
21894;SDS011;11112;51.270;7.224;2023-02-26T12:42:19;4.32;;;0.90;;
21894;SDS011;11112;51.270;7.224;2023-02-26T12:45:11;4.25;;;0.95;;
21894;SDS011;11112;51.270;7.224;2023-02-26T12:48:16;4.50;;;1.00;;
21894;SDS011;11112;51.270;7.224;2023-02-26T12:51:21;2.88;;;0.80;;
21894;SDS011;11112;51.270;7.224;2023-02-26T12:54:13;4.07;;;1.13;;
21894;SDS011;11112;51.270;7.224;2023-02-26T12:57:01;2.80;;;0.90;;
21894;SDS011;11112;51.270;7.224;2023-02-26T13:00:00;3.88;;;1.00;;
21894;SDS011;11112;51.270;7.224;2023-02-26T13:02:54;4.20;;;0.75;;
21894;SDS011;11112;51.270;7.224;2023-02-26T13:08:55;4.45;;;1.35;;
21894;SDS011;11112;51.270;7.224;2023-02-26T13:11:33;3.33;;;1.05;;
21894;SDS011;11112;51.270;7.224;2023-02-26T13:14:22;3.88;;;1.00;;
21894;SDS011;11112;51.270;7.224;2023-02-26T13:17:04;5.78;;;1.23;;
21894;SDS011;11112;51.270;7.224;2023-02-26T13:19:41;2.83;;;1.00;;
21894;SDS011;11112;51.270;7.224;2023-02-26T13:22:14;5.18;;;1.08;;
21894;SDS011;11112;51.270;7.224;2023-02-26T13:24:50;3.17;;;0.90;;
21894;SDS011;11112;51.270;7.224;2023-02-26T13:27:24;4.00;;;0.70;;
21894;SDS011;11112;51.270;7.224;2023-02-26T13:30:13;3.53;;;0.80;;
21894;SDS011;11112;51.270;7.224;2023-02-26T13:32:47;3.35;;;0.80;;
21894;SDS011;11112;51.270;7.224;2023-02-26T13:35:20;4.95;;;0.90;;
21894;SDS011;11112;51.270;7.224;2023-02-26T13:43:17;2.38;;;0.75;;
21894;SDS011;11112;51.270;7.224;2023-02-26T13:49:03;2.13;;;0.65;;
21894;SDS011;11112;51.270;7.224;2023-02-26T13:51:41;6.75;;;0.93;;
21894;SDS011;11112;51.270;7.224;2023-02-26T13:54:31;2.85;;;0.90;;
21894;SDS011;11112;51.270;7.224;2023-02-26T14:00:07;1.65;;;0.90;;
21894;SDS011;11112;51.270;7.224;2023-02-26T14:02:52;1.80;;;0.70;;
21894;SDS011;11112;51.270;7.224;2023-02-26T14:05:32;3.88;;;0.82;;
21894;SDS011;11112;51.270;7.224;2023-02-26T14:08:44;4.00;;;0.80;;
21894;SDS011;11112;51.270;7.224;2023-02-26T14:14:22;3.58;;;0.88;;
21894;SDS011;11112;51.270;7.224;2023-02-26T14:23:18;5.05;;;0.80;;
21894;SDS011;11112;51.270;7.224;2023-02-26T14:26:04;3.20;;;0.63;;
21894;SDS011;11112;51.270;7.224;2023-02-26T14:28:42;1.85;;;0.80;;
21894;SDS011;11112;51.270;7.224;2023-02-26T14:31:22;2.92;;;0.98;;
21894;SDS011;11112;51.270;7.224;2023-02-26T14:33:59;5.78;;;1.00;;
21894;SDS011;11112;51.270;7.224;2023-02-26T14:36:41;3.00;;;0.90;;
21894;SDS011;11112;51.270;7.224;2023-02-26T14:39:24;2.35;;;0.60;;
21894;SDS011;11112;51.270;7.224;2023-02-26T14:41:58;1.23;;;0.60;;
21894;SDS011;11112;51.270;7.224;2023-02-26T14:44:35;2.45;;;0.70;;
21894;SDS011;11112;51.270;7.224;2023-02-26T14:47:06;3.28;;;0.70;;
21894;SDS011;11112;51.270;7.224;2023-02-26T14:49:35;1.58;;;0.60;;
21894;SDS011;11112;51.270;7.224;2023-02-26T14:52:10;2.13;;;0.77;;
21894;SDS011;11112;51.270;7.224;2023-02-26T14:58:26;4.68;;;1.20;;
21894;SDS011;11112;51.270;7.224;2023-02-26T15:01:33;3.25;;;0.70;;
21894;SDS011;11112;51.270;7.224;2023-02-26T15:04:13;1.42;;;0.60;;
21894;SDS011;11112;51.270;7.224;2023-02-26T15:07:10;3.83;;;0.68;;
21894;SDS011;11112;51.270;7.224;2023-02-26T15:09:55;1.80;;;0.63;;
21894;SDS011;11112;51.270;7.224;2023-02-26T15:12:41;2.97;;;0.80;;
21894;SDS011;11112;51.270;7.224;2023-02-26T15:15:35;2.63;;;0.80;;
21894;SDS011;11112;51.270;7.224;2023-02-26T15:18:24;4.13;;;0.70;;
21894;SDS011;11112;51.270;7.224;2023-02-26T15:21:16;1.48;;;0.60;;
21894;SDS011;11112;51.270;7.224;2023-02-26T15:23:54;2.20;;;0.75;;
21894;SDS011;11112;51.270;7.224;2023-02-26T15:26:25;4.30;;;1.20;;
21894;SDS011;11112;51.270;7.224;2023-02-26T15:28:55;3.10;;;1.00;;
21894;SDS011;11112;51.270;7.224;2023-02-26T15:31:27;2.88;;;1.10;;
21894;SDS011;11112;51.270;7.224;2023-02-26T15:33:59;3.45;;;0.70;;
21894;SDS011;11112;51.270;7.224;2023-02-26T15:36:28;3.83;;;0.93;;
21894;SDS011;11112;51.270;7.224;2023-02-26T15:38:57;4.10;;;0.90;;
21894;SDS011;11112;51.270;7.224;2023-02-26T15:41:28;4.13;;;0.90;;
21894;SDS011;11112;51.270;7.224;2023-02-26T15:44:00;2.83;;;0.77;;
21894;SDS011;11112;51.270;7.224;2023-02-26T15:46:30;4.30;;;0.85;;
21894;SDS011;11112;51.270;7.224;2023-02-26T15:49:01;3.75;;;0.90;;
21894;SDS011;11112;51.270;7.224;2023-02-26T15:51:32;3.65;;;0.80;;
21894;SDS011;11112;51.270;7.224;2023-02-26T15:54:00;2.85;;;0.80;;
21894;SDS011;11112;51.270;7.224;2023-02-26T15:56:29;3.63;;;0.93;;
21894;SDS011;11112;51.270;7.224;2023-02-26T15:59:02;4.10;;;0.95;;
21894;SDS011;11112;51.270;7.224;2023-02-26T16:01:34;3.55;;;1.10;;
21894;SDS011;11112;51.270;7.224;2023-02-26T16:04:02;5.03;;;1.13;;
21894;SDS011;11112;51.270;7.224;2023-02-26T16:06:36;3.72;;;1.23;;
21894;SDS011;11112;51.270;7.224;2023-02-26T16:09:08;4.82;;;1.30;;
21894;SDS011;11112;51.270;7.224;2023-02-26T16:11:43;4.65;;;1.20;;
21894;SDS011;11112;51.270;7.224;2023-02-26T16:14:14;2.35;;;0.93;;